sensor_id;sensor_type;location;lat;lon;timestamp;temperature;humidity
47616;DHT22;69146;52.266;7.000;2024-03-25T00:00:19;4.80;99.90
47616;DHT22;69146;52.266;7.000;2024-03-25T00:03:05;4.80;99.90
47616;DHT22;69146;52.266;7.000;2024-03-25T00:05:49;4.70;99.90
47616;DHT22;69146;52.266;7.000;2024-03-25T00:08:34;4.70;99.90
47616;DHT22;69146;52.266;7.000;2024-03-25T00:11:20;4.70;99.90
47616;DHT22;69146;52.266;7.000;2024-03-25T00:14:04;4.70;99.90
47616;DHT22;69146;52.266;7.000;2024-03-25T00:16:49;4.80;99.90
47616;DHT22;69146;52.266;7.000;2024-03-25T00:19:33;4.90;99.90
47616;DHT22;69146;52.266;7.000;2024-03-25T00:22:18;5.00;99.90
47616;DHT22;69146;52.266;7.000;2024-03-25T00:25:04;5.00;99.90
47616;DHT22;69146;52.266;7.000;2024-03-25T00:27:51;5.00;99.90
47616;DHT22;69146;52.266;7.000;2024-03-25T00:30:36;5.00;99.90
47616;DHT22;69146;52.266;7.000;2024-03-25T00:33:20;5.00;99.90
47616;DHT22;69146;52.266;7.000;2024-03-25T00:36:05;4.90;99.90
47616;DHT22;69146;52.266;7.000;2024-03-25T00:38:51;4.80;99.90
47616;DHT22;69146;52.266;7.000;2024-03-25T00:41:35;4.70;99.90
47616;DHT22;69146;52.266;7.000;2024-03-25T00:44:20;4.70;99.90
47616;DHT22;69146;52.266;7.000;2024-03-25T00:47:05;4.70;99.90
47616;DHT22;69146;52.266;7.000;2024-03-25T00:49:49;4.60;99.90
47616;DHT22;69146;52.266;7.000;2024-03-25T00:52:33;4.50;99.90
47616;DHT22;69146;52.266;7.000;2024-03-25T00:55:18;4.50;99.90
47616;DHT22;69146;52.266;7.000;2024-03-25T00:58:03;4.40;99.90
47616;DHT22;69146;52.266;7.000;2024-03-25T01:00:49;4.40;99.90
47616;DHT22;69146;52.266;7.000;2024-03-25T01:03:34;4.40;99.90
47616;DHT22;69146;52.266;7.000;2024-03-25T01:06:18;4.40;99.90
47616;DHT22;69146;52.266;7.000;2024-03-25T01:09:02;4.30;99.90
47616;DHT22;69146;52.266;7.000;2024-03-25T01:11:48;4.30;99.90
47616;DHT22;69146;52.266;7.000;2024-03-25T01:14:33;4.30;99.90
47616;DHT22;69146;52.266;7.000;2024-03-25T01:17:18;4.20;99.90
47616;DHT22;69146;52.266;7.000;2024-03-25T01:20:03;4.10;99.90
47616;DHT22;69146;52.266;7.000;2024-03-25T01:22:53;4.10;99.90
47616;DHT22;69146;52.266;7.000;2024-03-25T01:25:37;4.10;99.90
47616;DHT22;69146;52.266;7.000;2024-03-25T01:28:22;4.10;99.90
47616;DHT22;69146;52.266;7.000;2024-03-25T01:31:06;4.00;99.90
47616;DHT22;69146;52.266;7.000;2024-03-25T01:33:52;4.00;99.90
47616;DHT22;69146;52.266;7.000;2024-03-25T01:36:36;4.10;99.90
47616;DHT22;69146;52.266;7.000;2024-03-25T01:39:21;4.10;99.90
47616;DHT22;69146;52.266;7.000;2024-03-25T01:42:05;4.20;99.90
47616;DHT22;69146;52.266;7.000;2024-03-25T01:44:50;4.30;99.90
47616;DHT22;69146;52.266;7.000;2024-03-25T01:47:34;4.30;99.90
47616;DHT22;69146;52.266;7.000;2024-03-25T01:50:20;4.40;99.90
47616;DHT22;69146;52.266;7.000;2024-03-25T01:53:05;4.40;99.90
47616;DHT22;69146;52.266;7.000;2024-03-25T01:55:50;4.40;99.90
47616;DHT22;69146;52.266;7.000;2024-03-25T01:58:38;4.40;99.90
47616;DHT22;69146;52.266;7.000;2024-03-25T02:01:22;4.40;99.90
47616;DHT22;69146;52.266;7.000;2024-03-25T02:04:07;4.40;99.90
47616;DHT22;69146;52.266;7.000;2024-03-25T02:06:53;4.40;99.90
47616;DHT22;69146;52.266;7.000;2024-03-25T02:09:39;4.40;99.90
47616;DHT22;69146;52.266;7.000;2024-03-25T02:12:25;4.40;99.90
47616;DHT22;69146;52.266;7.000;2024-03-25T02:15:09;4.30;99.90
47616;DHT22;69146;52.266;7.000;2024-03-25T02:17:54;4.30;99.90
47616;DHT22;69146;52.266;7.000;2024-03-25T02:20:38;4.20;99.90
47616;DHT22;69146;52.266;7.000;2024-03-25T02:23:24;4.10;99.90
47616;DHT22;69146;52.266;7.000;2024-03-25T02:26:10;4.10;99.90
47616;DHT22;69146;52.266;7.000;2024-03-25T02:28:54;4.00;99.90
47616;DHT22;69146;52.266;7.000;2024-03-25T02:31:39;3.90;99.90
47616;DHT22;69146;52.266;7.000;2024-03-25T02:34:23;3.90;99.90
47616;DHT22;69146;52.266;7.000;2024-03-25T02:37:08;3.90;99.90
47616;DHT22;69146;52.266;7.000;2024-03-25T02:39:53;3.80;99.90
47616;DHT22;69146;52.266;7.000;2024-03-25T02:42:40;3.80;99.90
47616;DHT22;69146;52.266;7.000;2024-03-25T02:45:24;3.80;99.90
47616;DHT22;69146;52.266;7.000;2024-03-25T02:48:09;3.80;99.90
47616;DHT22;69146;52.266;7.000;2024-03-25T02:50:54;3.70;99.90
47616;DHT22;69146;52.266;7.000;2024-03-25T02:53:38;3.70;99.90
47616;DHT22;69146;52.266;7.000;2024-03-25T02:56:23;3.70;99.90
47616;DHT22;69146;52.266;7.000;2024-03-25T02:59:09;3.70;99.90
47616;DHT22;69146;52.266;7.000;2024-03-25T03:01:53;3.70;99.90
47616;DHT22;69146;52.266;7.000;2024-03-25T03:04:37;3.80;99.90
47616;DHT22;69146;52.266;7.000;2024-03-25T03:07:22;3.90;99.90
47616;DHT22;69146;52.266;7.000;2024-03-25T03:10:07;3.90;99.90
47616;DHT22;69146;52.266;7.000;2024-03-25T03:12:51;4.00;99.90
47616;DHT22;69146;52.266;7.000;2024-03-25T03:15:37;4.00;99.90
47616;DHT22;69146;52.266;7.000;2024-03-25T03:18:21;4.00;99.90
47616;DHT22;69146;52.266;7.000;2024-03-25T03:21:06;4.10;99.90
47616;DHT22;69146;52.266;7.000;2024-03-25T03:23:50;4.20;99.90
47616;DHT22;69146;52.266;7.000;2024-03-25T03:26:35;4.20;99.90
47616;DHT22;69146;52.266;7.000;2024-03-25T03:29:19;4.10;99.90
47616;DHT22;69146;52.266;7.000;2024-03-25T03:32:06;4.20;99.90
47616;DHT22;69146;52.266;7.000;2024-03-25T03:34:50;4.20;99.90
47616;DHT22;69146;52.266;7.000;2024-03-25T03:37:34;4.20;99.90
47616;DHT22;69146;52.266;7.000;2024-03-25T03:40:19;4.20;99.90
47616;DHT22;69146;52.266;7.000;2024-03-25T03:43:04;4.30;99.90
47616;DHT22;69146;52.266;7.000;2024-03-25T03:45:48;4.30;99.90
47616;DHT22;69146;52.266;7.000;2024-03-25T03:48:34;4.30;99.90
47616;DHT22;69146;52.266;7.000;2024-03-25T03:51:19;4.30;99.90
47616;DHT22;69146;52.266;7.000;2024-03-25T03:54:04;4.40;99.90
47616;DHT22;69146;52.266;7.000;2024-03-25T03:56:48;4.40;99.90
47616;DHT22;69146;52.266;7.000;2024-03-25T03:59:33;4.40;99.90
47616;DHT22;69146;52.266;7.000;2024-03-25T04:02:18;4.40;99.90
47616;DHT22;69146;52.266;7.000;2024-03-25T04:05:04;4.40;99.90
47616;DHT22;69146;52.266;7.000;2024-03-25T04:07:48;4.30;99.90
47616;DHT22;69146;52.266;7.000;2024-03-25T04:10:33;4.40;99.90
47616;DHT22;69146;52.266;7.000;2024-03-25T04:13:17;4.30;99.90
47616;DHT22;69146;52.266;7.000;2024-03-25T04:16:02;4.30;99.90
47616;DHT22;69146;52.266;7.000;2024-03-25T04:18:47;4.40;99.90
47616;DHT22;69146;52.266;7.000;2024-03-25T04:21:33;4.30;99.90
47616;DHT22;69146;52.266;7.000;2024-03-25T04:24:17;4.30;99.90
47616;DHT22;69146;52.266;7.000;2024-03-25T04:27:02;4.30;99.90
47616;DHT22;69146;52.266;7.000;2024-03-25T04:29:46;4.30;99.90
47616;DHT22;69146;52.266;7.000;2024-03-25T04:32:30;4.30;99.90
47616;DHT22;69146;52.266;7.000;2024-03-25T04:35:15;4.30;99.90
47616;DHT22;69146;52.266;7.000;2024-03-25T04:38:00;4.30;99.90
47616;DHT22;69146;52.266;7.000;2024-03-25T04:40:45;4.20;99.90
47616;DHT22;69146;52.266;7.000;2024-03-25T04:43:29;4.20;99.90
47616;DHT22;69146;52.266;7.000;2024-03-25T04:46:14;4.20;99.90
47616;DHT22;69146;52.266;7.000;2024-03-25T04:48:58;4.20;99.90
47616;DHT22;69146;52.266;7.000;2024-03-25T04:51:43;4.20;99.90
47616;DHT22;69146;52.266;7.000;2024-03-25T04:54:29;4.30;99.90
47616;DHT22;69146;52.266;7.000;2024-03-25T04:57:13;4.30;99.90
47616;DHT22;69146;52.266;7.000;2024-03-25T04:59:58;4.30;99.90
47616;DHT22;69146;52.266;7.000;2024-03-25T05:02:42;4.40;99.90
47616;DHT22;69146;52.266;7.000;2024-03-25T05:05:27;4.40;99.90
47616;DHT22;69146;52.266;7.000;2024-03-25T05:08:11;4.40;99.90
47616;DHT22;69146;52.266;7.000;2024-03-25T05:10:57;4.40;99.90
47616;DHT22;69146;52.266;7.000;2024-03-25T05:13:41;4.40;99.90
47616;DHT22;69146;52.266;7.000;2024-03-25T05:16:26;4.40;99.90
47616;DHT22;69146;52.266;7.000;2024-03-25T05:19:10;4.40;99.90
47616;DHT22;69146;52.266;7.000;2024-03-25T05:21:55;4.40;99.90
47616;DHT22;69146;52.266;7.000;2024-03-25T05:24:39;4.40;99.90
47616;DHT22;69146;52.266;7.000;2024-03-25T05:27:25;4.40;99.90
47616;DHT22;69146;52.266;7.000;2024-03-25T05:30:10;4.30;99.90
47616;DHT22;69146;52.266;7.000;2024-03-25T05:32:54;4.40;99.90
47616;DHT22;69146;52.266;7.000;2024-03-25T05:35:40;4.40;99.90
47616;DHT22;69146;52.266;7.000;2024-03-25T05:38:25;4.40;99.90
47616;DHT22;69146;52.266;7.000;2024-03-25T05:41:09;4.40;99.90
47616;DHT22;69146;52.266;7.000;2024-03-25T05:43:55;4.30;99.90
47616;DHT22;69146;52.266;7.000;2024-03-25T05:46:39;4.20;99.90
47616;DHT22;69146;52.266;7.000;2024-03-25T05:49:24;4.30;99.90
47616;DHT22;69146;52.266;7.000;2024-03-25T05:52:08;4.30;99.90
47616;DHT22;69146;52.266;7.000;2024-03-25T05:54:53;4.30;99.90
47616;DHT22;69146;52.266;7.000;2024-03-25T05:57:37;4.30;99.90
47616;DHT22;69146;52.266;7.000;2024-03-25T06:00:23;4.30;99.90
47616;DHT22;69146;52.266;7.000;2024-03-25T06:03:08;4.30;99.90
47616;DHT22;69146;52.266;7.000;2024-03-25T06:05:53;4.30;99.90
47616;DHT22;69146;52.266;7.000;2024-03-25T06:08:37;4.30;99.90
47616;DHT22;69146;52.266;7.000;2024-03-25T06:11:22;4.40;99.90
47616;DHT22;69146;52.266;7.000;2024-03-25T06:14:06;4.40;99.90
47616;DHT22;69146;52.266;7.000;2024-03-25T06:16:52;4.50;99.90
47616;DHT22;69146;52.266;7.000;2024-03-25T06:19:36;4.60;99.90
47616;DHT22;69146;52.266;7.000;2024-03-25T06:22:21;4.60;99.90
47616;DHT22;69146;52.266;7.000;2024-03-25T06:25:05;4.60;99.90
47616;DHT22;69146;52.266;7.000;2024-03-25T06:27:51;4.60;99.90
47616;DHT22;69146;52.266;7.000;2024-03-25T06:30:36;4.60;99.90
47616;DHT22;69146;52.266;7.000;2024-03-25T06:33:40;4.60;99.90
47616;DHT22;69146;52.266;7.000;2024-03-25T06:36:57;4.60;99.90
47616;DHT22;69146;52.266;7.000;2024-03-25T06:39:41;4.70;99.90
47616;DHT22;69146;52.266;7.000;2024-03-25T06:42:25;4.80;99.90
47616;DHT22;69146;52.266;7.000;2024-03-25T06:45:10;4.90;99.90
47616;DHT22;69146;52.266;7.000;2024-03-25T06:47:55;4.90;99.90
47616;DHT22;69146;52.266;7.000;2024-03-25T06:50:41;4.90;99.90
47616;DHT22;69146;52.266;7.000;2024-03-25T06:53:26;4.90;99.90
47616;DHT22;69146;52.266;7.000;2024-03-25T06:56:11;4.90;99.90
47616;DHT22;69146;52.266;7.000;2024-03-25T06:58:55;5.00;99.90
47616;DHT22;69146;52.266;7.000;2024-03-25T07:01:41;4.90;99.90
47616;DHT22;69146;52.266;7.000;2024-03-25T07:04:25;4.90;99.90
47616;DHT22;69146;52.266;7.000;2024-03-25T07:07:11;5.00;99.90
47616;DHT22;69146;52.266;7.000;2024-03-25T07:09:55;5.00;99.90
47616;DHT22;69146;52.266;7.000;2024-03-25T07:12:40;4.90;99.90
47616;DHT22;69146;52.266;7.000;2024-03-25T07:15:24;4.90;99.90
47616;DHT22;69146;52.266;7.000;2024-03-25T07:18:09;4.90;99.90
47616;DHT22;69146;52.266;7.000;2024-03-25T07:20:55;4.80;99.90
47616;DHT22;69146;52.266;7.000;2024-03-25T07:23:41;4.70;99.90
47616;DHT22;69146;52.266;7.000;2024-03-25T07:26:25;4.80;99.90
47616;DHT22;69146;52.266;7.000;2024-03-25T07:29:10;4.80;99.90
47616;DHT22;69146;52.266;7.000;2024-03-25T07:31:55;4.90;99.90
47616;DHT22;69146;52.266;7.000;2024-03-25T07:34:40;5.10;99.90
47616;DHT22;69146;52.266;7.000;2024-03-25T07:37:24;5.30;99.90
47616;DHT22;69146;52.266;7.000;2024-03-25T07:40:11;5.40;99.90
47616;DHT22;69146;52.266;7.000;2024-03-25T07:42:58;5.60;99.90
47616;DHT22;69146;52.266;7.000;2024-03-25T07:45:43;5.70;99.90
47616;DHT22;69146;52.266;7.000;2024-03-25T07:48:27;5.80;99.90
47616;DHT22;69146;52.266;7.000;2024-03-25T07:51:12;5.90;99.90
47616;DHT22;69146;52.266;7.000;2024-03-25T07:53:56;6.10;99.90
47616;DHT22;69146;52.266;7.000;2024-03-25T07:56:42;6.20;99.90
47616;DHT22;69146;52.266;7.000;2024-03-25T07:59:26;6.40;99.90
47616;DHT22;69146;52.266;7.000;2024-03-25T08:02:11;6.40;99.90
47616;DHT22;69146;52.266;7.000;2024-03-25T08:04:55;6.30;99.90
47616;DHT22;69146;52.266;7.000;2024-03-25T08:07:40;6.30;99.90
47616;DHT22;69146;52.266;7.000;2024-03-25T08:10:25;6.30;99.90
47616;DHT22;69146;52.266;7.000;2024-03-25T08:13:10;6.30;99.90
47616;DHT22;69146;52.266;7.000;2024-03-25T08:15:55;6.20;99.90
47616;DHT22;69146;52.266;7.000;2024-03-25T08:18:39;6.30;99.90
47616;DHT22;69146;52.266;7.000;2024-03-25T08:21:24;6.50;99.90
47616;DHT22;69146;52.266;7.000;2024-03-25T08:24:08;6.70;99.90
47616;DHT22;69146;52.266;7.000;2024-03-25T08:26:53;7.00;99.90
47616;DHT22;69146;52.266;7.000;2024-03-25T08:29:38;7.30;99.90
47616;DHT22;69146;52.266;7.000;2024-03-25T08:32:23;7.60;99.90
47616;DHT22;69146;52.266;7.000;2024-03-25T08:35:07;7.90;99.90
47616;DHT22;69146;52.266;7.000;2024-03-25T08:37:53;8.00;99.90
47616;DHT22;69146;52.266;7.000;2024-03-25T08:40:37;8.00;99.90
47616;DHT22;69146;52.266;7.000;2024-03-25T08:43:21;8.10;99.90
47616;DHT22;69146;52.266;7.000;2024-03-25T08:46:07;8.20;99.90
47616;DHT22;69146;52.266;7.000;2024-03-25T08:48:52;8.40;99.90
47616;DHT22;69146;52.266;7.000;2024-03-25T08:51:36;8.60;99.90
47616;DHT22;69146;52.266;7.000;2024-03-25T08:54:21;8.40;99.90
47616;DHT22;69146;52.266;7.000;2024-03-25T08:57:05;8.20;99.90
47616;DHT22;69146;52.266;7.000;2024-03-25T08:59:49;8.20;99.90
47616;DHT22;69146;52.266;7.000;2024-03-25T09:02:35;8.40;99.90
47616;DHT22;69146;52.266;7.000;2024-03-25T09:05:20;8.60;99.90
47616;DHT22;69146;52.266;7.000;2024-03-25T09:08:04;8.80;99.90
47616;DHT22;69146;52.266;7.000;2024-03-25T09:10:50;9.00;99.90
47616;DHT22;69146;52.266;7.000;2024-03-25T09:13:46;9.10;99.90
47616;DHT22;69146;52.266;7.000;2024-03-25T09:16:31;9.20;99.90
47616;DHT22;69146;52.266;7.000;2024-03-25T09:19:17;9.40;99.90
47616;DHT22;69146;52.266;7.000;2024-03-25T09:22:02;9.60;99.90
47616;DHT22;69146;52.266;7.000;2024-03-25T09:24:46;9.50;99.90
47616;DHT22;69146;52.266;7.000;2024-03-25T09:27:31;9.30;99.90
47616;DHT22;69146;52.266;7.000;2024-03-25T09:30:16;9.20;99.90
47616;DHT22;69146;52.266;7.000;2024-03-25T09:33:02;9.30;99.90
47616;DHT22;69146;52.266;7.000;2024-03-25T09:35:49;9.40;99.90
47616;DHT22;69146;52.266;7.000;2024-03-25T09:38:33;9.40;99.90
47616;DHT22;69146;52.266;7.000;2024-03-25T09:41:17;9.40;99.90
47616;DHT22;69146;52.266;7.000;2024-03-25T09:44:02;9.40;99.90
47616;DHT22;69146;52.266;7.000;2024-03-25T09:46:49;9.50;99.90
47616;DHT22;69146;52.266;7.000;2024-03-25T09:49:33;9.90;99.90
47616;DHT22;69146;52.266;7.000;2024-03-25T09:52:20;10.40;99.90
47616;DHT22;69146;52.266;7.000;2024-03-25T09:55:05;10.40;99.90
47616;DHT22;69146;52.266;7.000;2024-03-25T09:57:50;10.10;99.90
47616;DHT22;69146;52.266;7.000;2024-03-25T10:00:34;9.80;99.90
47616;DHT22;69146;52.266;7.000;2024-03-25T10:03:19;9.60;99.90
47616;DHT22;69146;52.266;7.000;2024-03-25T10:06:03;9.40;99.90
47616;DHT22;69146;52.266;7.000;2024-03-25T10:08:49;9.20;99.90
47616;DHT22;69146;52.266;7.000;2024-03-25T10:11:37;9.40;99.90
47616;DHT22;69146;52.266;7.000;2024-03-25T10:14:22;9.90;99.90
47616;DHT22;69146;52.266;7.000;2024-03-25T10:17:06;10.50;99.90
47616;DHT22;69146;52.266;7.000;2024-03-25T10:19:53;10.70;99.90
47616;DHT22;69146;52.266;7.000;2024-03-25T10:22:40;10.70;99.90
47616;DHT22;69146;52.266;7.000;2024-03-25T10:25:27;10.50;99.90
47616;DHT22;69146;52.266;7.000;2024-03-25T10:28:12;10.30;99.90
47616;DHT22;69146;52.266;7.000;2024-03-25T10:31:02;10.40;99.90
47616;DHT22;69146;52.266;7.000;2024-03-25T10:33:48;10.60;99.90
47616;DHT22;69146;52.266;7.000;2024-03-25T10:36:32;10.70;99.90
47616;DHT22;69146;52.266;7.000;2024-03-25T10:39:16;10.70;99.90
47616;DHT22;69146;52.266;7.000;2024-03-25T10:42:03;10.70;99.90
47616;DHT22;69146;52.266;7.000;2024-03-25T10:44:50;10.90;99.90
47616;DHT22;69146;52.266;7.000;2024-03-25T10:47:38;11.10;99.90
47616;DHT22;69146;52.266;7.000;2024-03-25T10:50:24;11.40;99.90
47616;DHT22;69146;52.266;7.000;2024-03-25T10:53:10;11.40;99.90
47616;DHT22;69146;52.266;7.000;2024-03-25T10:55:55;11.30;99.90
47616;DHT22;69146;52.266;7.000;2024-03-25T10:58:43;11.20;99.90
47616;DHT22;69146;52.266;7.000;2024-03-25T11:01:30;11.20;99.90
47616;DHT22;69146;52.266;7.000;2024-03-25T11:04:14;11.00;99.90
47616;DHT22;69146;52.266;7.000;2024-03-25T11:07:06;11.00;99.90
47616;DHT22;69146;52.266;7.000;2024-03-25T11:09:51;10.90;99.90
47616;DHT22;69146;52.266;7.000;2024-03-25T11:12:49;10.80;99.90
47616;DHT22;69146;52.266;7.000;2024-03-25T11:15:37;10.80;99.90
47616;DHT22;69146;52.266;7.000;2024-03-25T11:18:22;10.90;99.90
47616;DHT22;69146;52.266;7.000;2024-03-25T11:21:10;11.10;99.90
47616;DHT22;69146;52.266;7.000;2024-03-25T11:24:05;11.20;99.90
47616;DHT22;69146;52.266;7.000;2024-03-25T11:26:51;11.20;99.90
47616;DHT22;69146;52.266;7.000;2024-03-25T11:29:35;11.10;99.90
47616;DHT22;69146;52.266;7.000;2024-03-25T11:32:22;11.20;99.90
47616;DHT22;69146;52.266;7.000;2024-03-25T11:35:07;11.20;99.90
47616;DHT22;69146;52.266;7.000;2024-03-25T11:37:52;11.30;99.90
47616;DHT22;69146;52.266;7.000;2024-03-25T11:40:36;11.30;99.90
47616;DHT22;69146;52.266;7.000;2024-03-25T11:43:22;11.30;99.90
47616;DHT22;69146;52.266;7.000;2024-03-25T11:46:06;11.40;99.90
47616;DHT22;69146;52.266;7.000;2024-03-25T11:48:53;11.80;99.90
47616;DHT22;69146;52.266;7.000;2024-03-25T11:51:37;12.20;99.90
47616;DHT22;69146;52.266;7.000;2024-03-25T11:54:27;12.50;99.90
47616;DHT22;69146;52.266;7.000;2024-03-25T11:57:11;12.70;99.90
47616;DHT22;69146;52.266;7.000;2024-03-25T11:59:57;12.90;99.90
47616;DHT22;69146;52.266;7.000;2024-03-25T12:02:42;12.80;99.90
47616;DHT22;69146;52.266;7.000;2024-03-25T12:05:28;12.60;99.30
47616;DHT22;69146;52.266;7.000;2024-03-25T12:08:12;12.60;98.60
47616;DHT22;69146;52.266;7.000;2024-03-25T12:10:57;12.50;99.90
47616;DHT22;69146;52.266;7.000;2024-03-25T12:14:10;12.30;99.90
47616;DHT22;69146;52.266;7.000;2024-03-25T12:16:55;12.20;99.90
47616;DHT22;69146;52.266;7.000;2024-03-25T12:19:39;12.10;99.90
47616;DHT22;69146;52.266;7.000;2024-03-25T12:22:27;12.20;99.90
47616;DHT22;69146;52.266;7.000;2024-03-25T12:25:11;12.30;99.90
47616;DHT22;69146;52.266;7.000;2024-03-25T12:27:56;12.40;99.90
47616;DHT22;69146;52.266;7.000;2024-03-25T12:30:49;12.50;99.90
47616;DHT22;69146;52.266;7.000;2024-03-25T12:33:39;12.40;99.90
47616;DHT22;69146;52.266;7.000;2024-03-25T12:36:24;12.30;99.90
47616;DHT22;69146;52.266;7.000;2024-03-25T12:39:16;12.20;99.90
47616;DHT22;69146;52.266;7.000;2024-03-25T12:42:04;12.20;99.90
47616;DHT22;69146;52.266;7.000;2024-03-25T12:44:48;12.20;99.90
47616;DHT22;69146;52.266;7.000;2024-03-25T12:47:34;12.10;99.90
47616;DHT22;69146;52.266;7.000;2024-03-25T12:50:19;12.00;99.90
47616;DHT22;69146;52.266;7.000;2024-03-25T12:53:09;11.80;99.90
47616;DHT22;69146;52.266;7.000;2024-03-25T12:56:02;11.70;99.90
47616;DHT22;69146;52.266;7.000;2024-03-25T12:58:46;11.80;99.90
47616;DHT22;69146;52.266;7.000;2024-03-25T13:01:31;11.90;99.90
47616;DHT22;69146;52.266;7.000;2024-03-25T13:04:15;12.00;99.90
47616;DHT22;69146;52.266;7.000;2024-03-25T13:07:00;12.00;99.90
47616;DHT22;69146;52.266;7.000;2024-03-25T13:09:45;12.10;99.90
47616;DHT22;69146;52.266;7.000;2024-03-25T13:12:32;12.30;99.90
47616;DHT22;69146;52.266;7.000;2024-03-25T13:15:17;12.40;99.90
47616;DHT22;69146;52.266;7.000;2024-03-25T13:18:01;12.40;99.90
47616;DHT22;69146;52.266;7.000;2024-03-25T13:20:46;12.20;99.30
47616;DHT22;69146;52.266;7.000;2024-03-25T13:23:34;12.00;99.90
47616;DHT22;69146;52.266;7.000;2024-03-25T13:26:18;12.00;98.50
47616;DHT22;69146;52.266;7.000;2024-03-25T13:29:04;12.20;98.80
47616;DHT22;69146;52.266;7.000;2024-03-25T13:31:49;12.80;98.00
47616;DHT22;69146;52.266;7.000;2024-03-25T13:34:33;13.60;98.00
47616;DHT22;69146;52.266;7.000;2024-03-25T13:37:19;14.20;96.40
47616;DHT22;69146;52.266;7.000;2024-03-25T13:40:04;14.90;96.10
47616;DHT22;69146;52.266;7.000;2024-03-25T13:42:50;15.50;95.60
47616;DHT22;69146;52.266;7.000;2024-03-25T13:45:35;15.40;95.00
47616;DHT22;69146;52.266;7.000;2024-03-25T13:48:20;15.40;94.60
47616;DHT22;69146;52.266;7.000;2024-03-25T13:51:04;15.60;94.40
47616;DHT22;69146;52.266;7.000;2024-03-25T13:53:49;15.60;94.20
47616;DHT22;69146;52.266;7.000;2024-03-25T13:56:33;14.90;95.20
47616;DHT22;69146;52.266;7.000;2024-03-25T13:59:18;14.70;94.40
47616;DHT22;69146;52.266;7.000;2024-03-25T14:02:05;14.70;95.10
47616;DHT22;69146;52.266;7.000;2024-03-25T14:04:50;14.10;94.90
47616;DHT22;69146;52.266;7.000;2024-03-25T14:07:34;13.40;95.50
47616;DHT22;69146;52.266;7.000;2024-03-25T14:10:18;12.90;96.70
47616;DHT22;69146;52.266;7.000;2024-03-25T14:13:03;12.30;97.40
47616;DHT22;69146;52.266;7.000;2024-03-25T14:15:48;12.00;97.10
47616;DHT22;69146;52.266;7.000;2024-03-25T14:18:34;11.80;98.20
47616;DHT22;69146;52.266;7.000;2024-03-25T14:21:19;11.70;98.20
47616;DHT22;69146;52.266;7.000;2024-03-25T14:24:04;11.60;97.50
47616;DHT22;69146;52.266;7.000;2024-03-25T14:26:50;11.60;98.50
47616;DHT22;69146;52.266;7.000;2024-03-25T14:29:37;11.60;97.40
47616;DHT22;69146;52.266;7.000;2024-03-25T14:32:22;11.70;99.20
47616;DHT22;69146;52.266;7.000;2024-03-25T14:35:11;12.40;98.50
47616;DHT22;69146;52.266;7.000;2024-03-25T14:37:56;13.90;94.60
47616;DHT22;69146;52.266;7.000;2024-03-25T14:40:40;15.10;94.30
47616;DHT22;69146;52.266;7.000;2024-03-25T14:43:24;15.70;93.40
47616;DHT22;69146;52.266;7.000;2024-03-25T14:46:09;15.80;91.40
47616;DHT22;69146;52.266;7.000;2024-03-25T14:48:53;15.30;91.50
47616;DHT22;69146;52.266;7.000;2024-03-25T14:51:40;14.40;93.00
47616;DHT22;69146;52.266;7.000;2024-03-25T14:54:32;13.80;92.40
47616;DHT22;69146;52.266;7.000;2024-03-25T14:57:17;13.20;92.60
47616;DHT22;69146;52.266;7.000;2024-03-25T15:00:02;12.80;94.20
47616;DHT22;69146;52.266;7.000;2024-03-25T15:02:48;12.60;95.30
47616;DHT22;69146;52.266;7.000;2024-03-25T15:05:32;12.40;96.40
47616;DHT22;69146;52.266;7.000;2024-03-25T15:08:18;12.30;93.80
47616;DHT22;69146;52.266;7.000;2024-03-25T15:11:02;12.20;95.20
47616;DHT22;69146;52.266;7.000;2024-03-25T15:13:50;12.10;95.80
47616;DHT22;69146;52.266;7.000;2024-03-25T15:16:35;11.90;95.60
47616;DHT22;69146;52.266;7.000;2024-03-25T15:19:19;11.80;94.80
47616;DHT22;69146;52.266;7.000;2024-03-25T15:22:04;11.60;96.40
47616;DHT22;69146;52.266;7.000;2024-03-25T15:24:50;11.60;95.60
47616;DHT22;69146;52.266;7.000;2024-03-25T15:27:35;11.40;95.80
47616;DHT22;69146;52.266;7.000;2024-03-25T15:30:20;11.30;94.70
47616;DHT22;69146;52.266;7.000;2024-03-25T15:33:05;11.20;95.80
47616;DHT22;69146;52.266;7.000;2024-03-25T15:35:50;11.10;95.10
47616;DHT22;69146;52.266;7.000;2024-03-25T15:38:34;11.00;95.10
47616;DHT22;69146;52.266;7.000;2024-03-25T15:41:21;10.90;95.70
47616;DHT22;69146;52.266;7.000;2024-03-25T15:44:05;10.80;93.80
47616;DHT22;69146;52.266;7.000;2024-03-25T15:46:52;10.80;96.30
47616;DHT22;69146;52.266;7.000;2024-03-25T15:49:36;10.80;95.20
47616;DHT22;69146;52.266;7.000;2024-03-25T15:52:20;10.80;95.20
47616;DHT22;69146;52.266;7.000;2024-03-25T15:55:05;10.80;94.90
47616;DHT22;69146;52.266;7.000;2024-03-25T15:57:52;10.80;95.70
47616;DHT22;69146;52.266;7.000;2024-03-25T16:00:37;10.80;95.60
47616;DHT22;69146;52.266;7.000;2024-03-25T16:03:23;10.80;96.10
47616;DHT22;69146;52.266;7.000;2024-03-25T16:06:07;10.80;95.20
47616;DHT22;69146;52.266;7.000;2024-03-25T16:08:52;10.80;94.80
47616;DHT22;69146;52.266;7.000;2024-03-25T16:11:37;10.80;95.10
47616;DHT22;69146;52.266;7.000;2024-03-25T16:14:22;10.80;94.80
47616;DHT22;69146;52.266;7.000;2024-03-25T16:17:07;10.80;94.30
47616;DHT22;69146;52.266;7.000;2024-03-25T16:19:52;10.70;94.90
47616;DHT22;69146;52.266;7.000;2024-03-25T16:22:36;10.60;95.10
47616;DHT22;69146;52.266;7.000;2024-03-25T16:25:21;10.60;95.70
47616;DHT22;69146;52.266;7.000;2024-03-25T16:28:08;10.50;97.30
47616;DHT22;69146;52.266;7.000;2024-03-25T16:30:54;10.30;97.20
47616;DHT22;69146;52.266;7.000;2024-03-25T16:33:38;10.30;98.00
47616;DHT22;69146;52.266;7.000;2024-03-25T16:36:25;10.20;97.50
47616;DHT22;69146;52.266;7.000;2024-03-25T16:39:09;10.10;98.40
47616;DHT22;69146;52.266;7.000;2024-03-25T16:41:54;10.10;96.90
47616;DHT22;69146;52.266;7.000;2024-03-25T16:44:39;10.00;98.10
47616;DHT22;69146;52.266;7.000;2024-03-25T16:47:25;10.00;97.50
47616;DHT22;69146;52.266;7.000;2024-03-25T16:50:10;9.90;97.20
47616;DHT22;69146;52.266;7.000;2024-03-25T16:52:56;9.80;97.30
47616;DHT22;69146;52.266;7.000;2024-03-25T16:55:41;9.80;98.00
47616;DHT22;69146;52.266;7.000;2024-03-25T16:58:26;9.70;97.60
47616;DHT22;69146;52.266;7.000;2024-03-25T17:01:10;9.60;97.40
47616;DHT22;69146;52.266;7.000;2024-03-25T17:03:56;9.60;98.20
47616;DHT22;69146;52.266;7.000;2024-03-25T17:06:40;9.60;96.80
47616;DHT22;69146;52.266;7.000;2024-03-25T17:09:24;9.70;97.10
47616;DHT22;69146;52.266;7.000;2024-03-25T17:12:10;9.80;96.40
47616;DHT22;69146;52.266;7.000;2024-03-25T17:14:54;9.70;96.70
47616;DHT22;69146;52.266;7.000;2024-03-25T17:17:39;9.70;97.60
47616;DHT22;69146;52.266;7.000;2024-03-25T17:20:25;9.70;96.60
47616;DHT22;69146;52.266;7.000;2024-03-25T17:23:11;9.70;96.70
47616;DHT22;69146;52.266;7.000;2024-03-25T17:25:56;9.60;96.10
47616;DHT22;69146;52.266;7.000;2024-03-25T17:28:40;9.60;97.00
47616;DHT22;69146;52.266;7.000;2024-03-25T17:31:25;9.50;98.10
47616;DHT22;69146;52.266;7.000;2024-03-25T17:34:09;9.40;97.50